createdAt,value
2019-04-25T00:01:54.861Z,52.45
2019-04-25T00:04:23.241Z,51.25
2019-04-25T00:06:52.154Z,51.01
2019-04-25T00:09:22.017Z,51.11
2019-04-25T00:11:51.914Z,53.45
2019-04-25T00:14:22.594Z,51.11
2019-04-25T00:16:51.833Z,50.52
2019-04-25T00:19:21.892Z,50.45
2019-04-25T00:22:18.465Z,50.17
2019-04-25T00:24:55.549Z,50.23
2019-04-25T00:27:24.151Z,50.32
2019-04-25T00:29:52.945Z,50.09
2019-04-25T00:32:21.689Z,50.69
2019-04-25T00:34:49.884Z,50.48
2019-04-25T00:37:18.081Z,50.52
2019-04-25T00:39:47.087Z,50.38
2019-04-25T00:42:15.310Z,50.14
2019-04-25T00:44:44.845Z,50.34
2019-04-25T00:47:13.478Z,50.43
2019-04-25T00:49:43.845Z,50.67
2019-04-25T00:52:12.148Z,50.64
2019-04-25T00:54:41.416Z,50.97
2019-04-25T00:57:12.114Z,50.81
2019-04-25T00:59:58.512Z,51.08
2019-04-25T01:02:40.211Z,51.01
2019-04-25T01:05:08.702Z,50.82
2019-04-25T01:07:36.917Z,50.75
2019-04-25T01:10:06.588Z,53.42
2019-04-25T01:12:34.834Z,51.19
2019-04-25T01:15:03.782Z,50.87
2019-04-25T01:17:32.078Z,50.69
2019-04-25T01:20:00.327Z,55.13
2019-04-25T01:22:28.556Z,72.40
2019-04-25T01:24:56.732Z,54.95
2019-04-25T01:27:24.925Z,53.01
2019-04-25T01:29:54.456Z,53.46
2019-04-25T01:32:30.656Z,52.34
2019-04-25T01:35:06.512Z,62.68
2019-04-25T01:37:54.843Z,52.51
2019-04-25T01:40:43.928Z,58.77
2019-04-25T01:43:19.520Z,53.69
2019-04-25T01:45:48.240Z,52.86
2019-04-25T01:48:16.708Z,52.26
2019-04-25T01:50:44.958Z,51.21
2019-04-25T01:53:14.599Z,51.25
2019-04-25T01:55:53.623Z,53.25
2019-04-25T01:58:13.740Z,52.47
2019-04-25T02:00:46.091Z,52.47
2019-04-25T02:03:14.269Z,52.38
2019-04-25T02:05:43.860Z,52.31
2019-04-25T02:08:14.172Z,51.83
2019-04-25T02:10:44.052Z,51.98
2019-04-25T02:15:48.522Z,51.77
2019-04-25T02:18:16.805Z,51.84
2019-04-25T02:20:45.017Z,59.34
2019-04-25T02:23:14.131Z,55.04
2019-04-25T02:25:44.270Z,53.64
2019-04-25T02:28:13.964Z,57.73
2019-04-25T02:30:45.134Z,52.69
2019-04-25T02:33:14.244Z,70.58
2019-04-25T02:35:43.970Z,54.79
2019-04-25T02:38:16.631Z,53.33
2019-04-25T02:40:45.227Z,52.57
2019-04-25T02:43:14.284Z,64.54
2019-04-25T02:46:01.587Z,52.08
2019-04-25T02:48:48.888Z,68.20
2019-04-25T02:51:36.204Z,66.31
2019-04-25T02:54:07.657Z,57.41
2019-04-25T02:56:38.462Z,58.24
2019-04-25T02:59:07.005Z,62.11
2019-04-25T03:01:34.515Z,52.20
2019-04-25T03:04:04.918Z,69.33
2019-04-25T03:06:34.855Z,65.06
2019-04-25T03:09:04.009Z,54.97
2019-04-25T03:11:34.568Z,52.87
2019-04-25T03:14:02.354Z,53.03
2019-04-25T03:16:30.529Z,50.86
2019-04-25T03:19:17.704Z,59.96
2019-04-25T03:21:47.238Z,54.56
2019-04-25T03:24:16.857Z,71.76
2019-04-25T03:26:45.185Z,53.30
2019-04-25T03:29:13.714Z,59.82
2019-04-25T03:31:44.713Z,75.71
2019-04-25T03:34:16.049Z,77.39
2019-04-25T03:36:43.717Z,60.07
2019-04-25T03:39:14.456Z,77.83
2019-04-25T03:41:42.046Z,56.98
2019-04-25T03:44:10.203Z,59.06
2019-04-25T03:46:38.433Z,74.83
2019-04-25T03:49:07.548Z,78.12
2019-04-25T03:51:35.927Z,71.82
2019-04-25T03:54:04.870Z,78.09
2019-04-25T03:56:33.977Z,78.64
2019-04-25T03:59:04.817Z,60.36
2019-04-25T04:01:32.149Z,56.95
2019-04-25T04:04:00.343Z,60.23
2019-04-25T04:06:28.492Z,74.37
2019-04-25T04:08:56.677Z,64.56
2019-04-25T04:11:24.915Z,71.71
2019-04-25T04:13:53.549Z,53.73
2019-04-25T04:16:25.369Z,62.67
2019-04-25T04:18:55.831Z,53.39
2019-04-25T04:21:41.080Z,56.15
2019-04-25T04:24:16.277Z,58.42
2019-04-25T04:27:05.349Z,58.48
2019-04-25T04:29:33.450Z,60.18
2019-04-25T04:32:03.021Z,55.84
2019-04-25T04:34:31.295Z,60.04
2019-04-25T04:36:59.473Z,54.60
2019-04-25T04:39:27.740Z,54.61
2019-04-25T04:41:55.959Z,57.86
2019-04-25T04:44:24.234Z,64.02
2019-04-25T04:46:53.801Z,57.95
2019-04-25T04:49:23.507Z,66.66
2019-04-25T04:51:52.039Z,74.06
2019-04-25T04:54:20.187Z,70.59
2019-04-25T04:56:48.481Z,57.55
2019-04-25T04:59:16.660Z,74.09
2019-04-25T05:02:03.859Z,71.39
2019-04-25T05:04:43.514Z,68.33
2019-04-25T05:07:30.828Z,71.46
2019-04-25T05:09:59.306Z,62.50
2019-04-25T05:12:27.742Z,56.90
2019-04-25T05:14:56.036Z,70.31
2019-04-25T05:17:25.434Z,68.91
2019-04-25T05:19:54.007Z,65.05
2019-04-25T05:22:23.925Z,62.26
2019-04-25T05:24:53.485Z,68.27
2019-04-25T05:27:36.034Z,67.57
2019-04-25T05:29:51.724Z,64.93
2019-04-25T05:32:19.898Z,65.65
2019-04-25T05:34:49.406Z,67.51
2019-04-25T05:37:17.683Z,68.90
2019-04-25T05:39:45.950Z,55.01
2019-04-25T05:42:48.712Z,66.47
2019-04-25T05:45:18.650Z,64.27
2019-04-25T05:47:46.382Z,63.59
2019-04-25T05:50:15.704Z,52.20
2019-04-25T05:52:45.816Z,54.26
2019-04-25T05:55:14.268Z,64.15
2019-04-25T05:57:49.642Z,61.39
2019-04-25T06:00:15.102Z,62.97
2019-04-25T06:02:45.847Z,60.15
2019-04-25T06:05:13.310Z,54.01
2019-04-25T06:07:43.132Z,57.91
2019-04-25T06:10:30.143Z,58.45
2019-04-25T06:13:29.378Z,53.16
2019-04-25T06:16:05.725Z,59.96
2019-04-25T06:18:39.794Z,58.86
2019-04-25T06:21:09.673Z,53.81
2019-04-25T06:24:05.900Z,59.63
2019-04-25T06:26:41.334Z,53.27
2019-04-25T06:29:09.480Z,51.61
2019-04-25T06:31:37.711Z,56.34
2019-04-25T06:34:05.908Z,54.62
2019-04-25T06:36:35.314Z,53.33
2019-04-25T06:39:04.106Z,53.02
2019-04-25T06:41:34.044Z,54.06
2019-04-25T06:44:04.222Z,51.04
2019-04-25T06:46:53.542Z,52.49
2019-04-25T06:49:27.865Z,54.85
2019-04-25T06:51:56.032Z,49.15
2019-04-25T06:54:25.790Z,50.27
2019-04-25T06:56:54.170Z,49.30
2019-04-25T06:59:25.539Z,50.34
2019-04-25T07:01:54.097Z,50.49
2019-04-25T07:04:22.765Z,52.34
2019-04-25T07:06:51.423Z,52.84
2019-04-25T07:09:19.557Z,51.78
2019-04-25T07:11:48.236Z,49.84
2019-04-25T07:14:16.413Z,53.04
2019-04-25T07:16:44.539Z,52.59
2019-04-25T07:19:14.680Z,48.25
2019-04-25T07:21:44.271Z,48.14
2019-04-25T07:24:14.139Z,47.39
2019-04-25T07:27:07.622Z,47.09
2019-04-25T07:29:48.137Z,46.67
2019-04-25T07:32:28.102Z,47.05
2019-04-25T07:34:55.172Z,46.06
2019-04-25T07:37:24.226Z,46.06
2019-04-25T07:39:54.110Z,46.61
2019-04-25T07:42:23.565Z,43.96
2019-04-25T07:44:53.416Z,44.54
2019-04-25T07:47:21.993Z,45.66
2019-04-25T07:49:50.721Z,43.85
2019-04-25T07:52:18.877Z,45.00
2019-04-25T07:54:47.059Z,43.09
2019-04-25T07:57:15.215Z,44.23
2019-04-25T07:59:43.688Z,44.23
2019-04-25T08:02:13.320Z,44.26
2019-04-25T08:04:41.591Z,43.64
2019-04-25T08:07:09.751Z,42.92
2019-04-25T08:09:38.072Z,43.46
2019-04-25T08:12:06.266Z,42.18
2019-04-25T08:14:40.336Z,42.98
2019-04-25T08:17:09.333Z,42.55
2019-04-25T08:19:37.611Z,42.88
2019-04-25T08:22:06.607Z,42.67
2019-04-25T08:24:37.248Z,42.04
2019-04-25T08:27:05.844Z,41.82
2019-04-25T08:29:36.347Z,41.59
2019-04-25T08:32:04.587Z,41.99
2019-04-25T08:34:34.399Z,41.56
2019-04-25T08:37:04.096Z,41.47
2019-04-25T08:39:34.407Z,41.63
2019-04-25T08:42:03.461Z,40.79
2019-04-25T08:44:32.458Z,41.97
2019-04-25T08:47:01.227Z,40.18
2019-04-25T08:49:42.931Z,36.74
2019-04-25T08:52:11.025Z,39.45
2019-04-25T08:54:57.474Z,37.66
2019-04-25T08:57:44.037Z,35.49
2019-04-25T09:00:27.352Z,37.43
2019-04-25T09:02:59.676Z,38.67
2019-04-25T09:05:47.058Z,37.92
2019-04-25T09:08:15.163Z,39.85
2019-04-25T09:10:44.793Z,36.50
2019-04-25T09:13:13.506Z,36.62
2019-04-25T09:15:41.796Z,37.12
2019-04-25T09:18:10.026Z,38.99
2019-04-25T09:20:40.840Z,38.65
2019-04-25T09:23:08.088Z,38.53
2019-04-25T09:25:36.816Z,38.13
2019-04-25T09:28:05.102Z,37.49
2019-04-25T09:30:34.945Z,37.66
2019-04-25T09:33:04.608Z,39.40
2019-04-25T09:35:33.538Z,38.18
2019-04-25T09:38:03.388Z,36.37
2019-04-25T09:40:31.622Z,38.18
2019-04-25T09:42:59.796Z,36.27
2019-04-25T09:45:37.614Z,37.35
2019-04-25T09:48:13.259Z,38.62
2019-04-25T09:50:46.687Z,36.03
2019-04-25T09:53:23.531Z,37.21
2019-04-25T09:55:58.254Z,36.54
2019-04-25T09:58:37.971Z,33.31
2019-04-25T10:01:10.942Z,37.80
2019-04-25T10:03:39.514Z,35.66
2019-04-25T10:06:07.882Z,36.75
2019-04-25T10:08:36.989Z,38.30
2019-04-25T10:11:05.617Z,36.29
2019-04-25T10:13:33.897Z,32.79
2019-04-25T10:16:09.370Z,33.36
2019-04-25T10:18:39.151Z,31.42
2019-04-25T10:21:10.828Z,34.90
2019-04-25T10:23:39.904Z,32.94
2019-04-25T10:26:09.316Z,29.58
2019-04-25T10:28:38.733Z,34.29
2019-04-25T10:31:07.921Z,32.24
2019-04-25T10:33:36.086Z,35.25
2019-04-25T10:36:06.010Z,34.13
2019-04-25T10:38:35.123Z,29.50
2019-04-25T10:41:04.195Z,32.42
2019-04-25T10:43:34.085Z,28.05
2019-04-25T10:46:03.491Z,29.84
2019-04-25T10:48:32.359Z,27.59
2019-04-25T10:51:00.675Z,28.29
2019-04-25T10:53:29.003Z,26.55
2019-04-25T10:55:57.404Z,31.09
2019-04-25T10:58:25.609Z,30.70
2019-04-25T11:00:53.731Z,31.11
2019-04-25T11:03:54.412Z,25.66
2019-04-25T11:06:27.202Z,25.30
2019-04-25T11:08:56.438Z,30.35
2019-04-25T11:11:24.826Z,31.50
2019-04-25T11:13:55.653Z,27.07
2019-04-25T11:16:24.263Z,28.70
2019-04-25T11:18:53.136Z,26.59
2019-04-25T11:21:24.150Z,30.00
2019-04-25T11:23:55.312Z,26.93
2019-04-25T11:26:22.606Z,27.24
2019-04-25T11:28:51.018Z,30.96
2019-04-25T11:31:25.383Z,30.62
2019-04-25T11:33:54.513Z,29.62
2019-04-25T11:36:24.764Z,30.66
2019-04-25T11:39:27.163Z,28.65
2019-04-25T11:41:55.686Z,28.04
2019-04-25T11:44:24.571Z,25.54
2019-04-25T11:46:53.222Z,27.87
2019-04-25T11:49:21.420Z,31.14
2019-04-25T11:51:50.271Z,29.30
2019-04-25T11:54:18.664Z,26.04
2019-04-25T11:56:47.328Z,27.81
2019-04-25T11:59:15.817Z,31.08
2019-04-25T12:01:45.375Z,23.75
2019-04-25T12:04:14.910Z,29.01
2019-04-25T12:06:47.036Z,28.17
2019-04-25T12:09:13.885Z,29.16
2019-04-25T12:11:44.539Z,24.96
2019-04-25T12:14:12.000Z,23.93
2019-04-25T12:16:40.270Z,27.64
2019-04-25T12:19:08.653Z,27.00
2019-04-25T12:21:36.781Z,27.74
2019-04-25T12:24:05.865Z,27.01
2019-04-25T12:26:34.315Z,24.58
2019-04-25T12:29:04.254Z,22.29
2019-04-25T12:31:34.071Z,26.33
2019-04-25T12:34:03.443Z,22.84
2019-04-25T12:36:31.772Z,25.75
2019-04-25T12:38:59.913Z,26.31
2019-04-25T12:41:28.290Z,24.52
2019-04-25T12:44:21.845Z,25.36
2019-04-25T12:46:50.815Z,24.32
2019-04-25T12:49:19.075Z,24.16
2019-04-25T12:51:47.769Z,23.48
2019-04-25T12:54:16.138Z,19.89
2019-04-25T12:56:44.344Z,21.12
2019-04-25T12:59:12.554Z,25.64
2019-04-25T13:01:40.826Z,25.45
2019-04-25T13:04:09.390Z,28.29
2019-04-25T13:06:37.582Z,29.27
2019-04-25T13:09:07.481Z,20.08
2019-04-25T13:11:35.657Z,25.07
2019-04-25T13:14:03.955Z,25.98
2019-04-25T13:16:32.145Z,25.89
2019-04-25T13:19:13.598Z,25.31
2019-04-25T13:21:30.302Z,25.33
2019-04-25T13:23:58.482Z,24.70
2019-04-25T13:26:29.799Z,22.71
2019-04-25T13:29:09.442Z,22.67
2019-04-25T13:31:55.929Z,21.87
2019-04-25T13:34:36.237Z,21.59
2019-04-25T13:37:01.883Z,23.70
2019-04-25T13:39:30.314Z,24.48
2019-04-25T13:42:00.668Z,24.36
2019-04-25T13:44:28.398Z,23.51
2019-04-25T13:46:56.626Z,20.61
2019-04-25T13:49:25.060Z,23.89
2019-04-25T13:51:53.454Z,22.29
2019-04-25T13:54:23.752Z,20.28
2019-04-25T13:56:53.372Z,21.36
2019-04-25T13:59:21.823Z,23.87
2019-04-25T14:01:50.058Z,21.46
2019-04-25T14:04:18.613Z,21.11
2019-04-25T14:06:46.899Z,21.50
2019-04-25T14:09:18.193Z,20.52
2019-04-25T14:11:46.356Z,21.42
2019-04-25T14:14:14.560Z,20.70
2019-04-25T14:16:59.021Z,21.02
2019-04-25T14:19:46.310Z,21.05
2019-04-25T14:22:14.490Z,23.09
2019-04-25T14:24:44.044Z,21.54
2019-04-25T14:27:13.652Z,19.74
2019-04-25T14:29:41.905Z,21.10
2019-04-25T14:32:11.876Z,21.48
2019-04-25T14:34:39.990Z,23.48
2019-04-25T14:37:08.317Z,22.58
2019-04-25T14:39:36.491Z,21.99
2019-04-25T14:42:04.755Z,21.60
2019-04-25T14:44:33.562Z,22.53
2019-04-25T14:47:02.051Z,22.46
2019-04-25T14:49:30.554Z,21.76
2019-04-25T14:51:58.813Z,21.66
2019-04-25T14:54:35.661Z,21.81
2019-04-25T14:57:25.954Z,21.72
2019-04-25T14:59:54.367Z,20.55
2019-04-25T15:02:23.889Z,23.22
2019-04-25T15:04:52.036Z,22.61
2019-04-25T15:07:20.226Z,22.57
2019-04-25T15:09:48.405Z,22.72
2019-04-25T15:12:18.115Z,23.76
2019-04-25T15:14:46.314Z,25.87
2019-04-25T15:17:14.567Z,23.89
2019-04-25T15:19:42.678Z,24.94
2019-04-25T15:22:10.934Z,23.11
2019-04-25T15:24:39.057Z,23.81
2019-04-25T15:27:07.331Z,25.90
2019-04-25T15:29:35.463Z,23.27
2019-04-25T15:32:04.230Z,23.58
2019-04-25T15:34:39.237Z,23.85
2019-04-25T15:37:20.363Z,24.73
2019-04-25T15:39:55.521Z,24.80
2019-04-25T15:42:41.911Z,24.47
2019-04-25T15:45:38.695Z,24.88
2019-04-25T15:48:08.184Z,24.62
2019-04-25T15:50:36.352Z,22.93
2019-04-25T15:53:04.683Z,25.25
2019-04-25T15:55:33.082Z,25.49
2019-04-25T15:58:01.403Z,25.07
2019-04-25T16:00:35.543Z,25.34
2019-04-25T16:03:04.107Z,24.51
2019-04-25T16:05:32.286Z,24.54
2019-04-25T16:08:00.521Z,25.73
2019-04-25T16:10:29.800Z,25.20
2019-04-25T16:12:58.061Z,27.08
2019-04-25T16:15:27.588Z,25.50
2019-04-25T16:17:54.873Z,26.06
2019-04-25T16:20:23.157Z,26.32
2019-04-25T16:22:51.291Z,25.57
2019-04-25T16:25:19.642Z,24.38
2019-04-25T16:27:47.825Z,27.04
2019-04-25T16:30:16.066Z,27.28
2019-04-25T16:32:44.276Z,25.84
2019-04-25T16:35:12.483Z,25.53
2019-04-25T16:37:41.342Z,25.96
2019-04-25T16:40:09.876Z,26.02
2019-04-25T16:42:38.227Z,26.21
2019-04-25T16:45:07.672Z,25.86
2019-04-25T16:47:35.875Z,26.31
2019-04-25T16:50:04.050Z,26.69
2019-04-25T16:52:32.224Z,26.29
2019-04-25T16:55:00.376Z,26.44
2019-04-25T16:57:28.606Z,27.01
2019-04-25T16:59:56.907Z,27.04
2019-04-25T17:02:35.302Z,26.81
2019-04-25T17:04:58.498Z,26.62
2019-04-25T17:07:27.134Z,26.58
2019-04-25T17:09:55.256Z,27.10
2019-04-25T17:12:24.036Z,26.96
2019-04-25T17:15:11.174Z,28.20
2019-04-25T17:17:45.699Z,27.18
2019-04-25T17:20:22.403Z,28.05
2019-04-25T17:22:50.600Z,28.22
2019-04-25T17:25:19.356Z,27.82
2019-04-25T17:27:47.624Z,27.88
2019-04-25T17:30:16.187Z,27.46
2019-04-25T17:33:06.237Z,27.74
2019-04-25T17:35:48.258Z,27.67
2019-04-25T17:38:20.199Z,27.61
2019-04-25T17:40:48.882Z,27.59
2019-04-25T17:43:17.144Z,27.70
2019-04-25T17:45:45.361Z,27.99
2019-04-25T17:48:13.556Z,28.22
2019-04-25T17:50:41.820Z,28.13
2019-04-25T17:53:10.109Z,28.23
2019-04-25T17:55:38.253Z,28.23
2019-04-25T17:58:06.439Z,28.56
2019-04-25T18:00:37.815Z,28.52
2019-04-25T18:03:08.344Z,29.35
2019-04-25T18:05:36.646Z,29.16
2019-04-25T18:08:05.032Z,29.13
2019-04-25T18:10:34.287Z,29.37
2019-04-25T18:13:02.638Z,31.56
2019-04-25T18:15:48.720Z,29.74
2019-04-25T18:18:37.037Z,29.85
2019-04-25T18:21:05.340Z,31.15
2019-04-25T18:24:04.678Z,31.08
2019-04-25T18:26:54.838Z,30.59
2019-04-25T18:29:23.211Z,30.31
2019-04-25T18:31:51.458Z,30.33
2019-04-25T18:34:29.082Z,29.94
2019-04-25T18:37:18.934Z,29.43
2019-04-25T18:39:52.595Z,30.66
2019-04-25T18:42:39.956Z,30.19
2019-04-25T18:45:10.739Z,29.33
2019-04-25T18:47:39.097Z,30.28
2019-04-25T18:50:09.232Z,29.86
2019-04-25T18:52:56.441Z,30.22
2019-04-25T18:55:34.210Z,30.09
2019-04-25T18:58:19.612Z,30.68
2019-04-25T19:01:00.745Z,30.58
2019-04-25T19:03:48.009Z,30.84
2019-04-25T19:06:18.049Z,31.10
2019-04-25T19:08:47.082Z,32.27
2019-04-25T19:11:15.559Z,31.97
2019-04-25T19:13:43.851Z,32.25
2019-04-25T19:16:12.114Z,36.40
2019-04-25T19:18:41.448Z,36.96
2019-04-25T19:21:10.480Z,40.32
2019-04-25T19:23:39.390Z,36.82
2019-04-25T19:26:07.818Z,36.26
2019-04-25T19:28:36.222Z,42.48
2019-04-25T19:31:04.591Z,39.68
2019-04-25T19:33:35.908Z,42.95
2019-04-25T19:36:03.143Z,41.23
2019-04-25T19:38:31.489Z,40.37
2019-04-25T19:41:18.618Z,40.37
2019-04-25T19:43:56.400Z,36.91
2019-04-25T19:46:42.853Z,39.66
2019-04-25T19:49:11.195Z,36.32
2019-04-25T19:51:39.419Z,40.97
2019-04-25T19:54:07.595Z,38.83
2019-04-25T19:56:36.082Z,39.77
2019-04-25T19:59:04.655Z,36.74
2019-04-25T20:01:32.766Z,36.05
2019-04-25T20:04:35.098Z,36.36
2019-04-25T20:07:28.005Z,36.36
2019-04-25T20:10:20.902Z,36.90
2019-04-25T20:12:52.169Z,41.34
2019-04-25T20:15:20.965Z,37.43
2019-04-25T20:17:49.802Z,36.99
2019-04-25T20:20:18.543Z,36.90
2019-04-25T20:22:48.160Z,37.97
2019-04-25T20:25:16.960Z,41.07
2019-04-25T20:27:46.648Z,37.56
2019-04-25T20:30:15.431Z,42.38
2019-04-25T20:32:43.582Z,37.93
2019-04-25T20:35:11.928Z,42.10
2019-04-25T20:37:40.089Z,38.43
2019-04-25T20:40:08.790Z,37.75
2019-04-25T20:42:37.105Z,44.92
2019-04-25T20:45:06.956Z,39.10
2019-04-25T20:47:35.132Z,39.44
2019-04-25T20:50:03.752Z,45.46
2019-04-25T20:52:32.011Z,39.99
2019-04-25T20:55:00.538Z,46.63
2019-04-25T20:57:28.686Z,42.25
2019-04-25T20:59:58.076Z,44.52
2019-04-25T21:02:26.884Z,47.74
2019-04-25T21:04:54.992Z,49.14
2019-04-25T21:07:23.139Z,46.16
2019-04-25T21:09:51.862Z,41.85
2019-04-25T21:12:20.493Z,41.39
2019-04-25T21:15:10.807Z,39.19
2019-04-25T21:17:58.369Z,37.65
2019-04-25T21:20:26.763Z,38.11
2019-04-25T21:22:55.823Z,36.80
2019-04-25T21:25:24.363Z,38.76
2019-04-25T21:27:52.590Z,39.94
2019-04-25T21:30:20.886Z,41.82
2019-04-25T21:32:53.680Z,43.34
2019-04-25T21:35:23.304Z,44.78
2019-04-25T21:37:52.176Z,46.12
2019-04-25T21:40:29.924Z,46.60
2019-04-25T21:43:03.866Z,46.44
2019-04-25T21:45:32.348Z,47.53
2019-04-25T21:48:01.157Z,48.00
2019-04-25T21:50:29.651Z,47.86
2019-04-25T21:52:59.180Z,48.03
2019-04-25T21:55:27.598Z,46.53
2019-04-25T21:57:56.338Z,48.69
2019-04-25T22:00:42.416Z,49.73
2019-04-25T22:03:11.855Z,48.78
2019-04-25T22:05:40.335Z,47.87
2019-04-25T22:08:08.640Z,49.07
2019-04-25T22:10:36.868Z,49.07
2019-04-25T22:13:11.996Z,50.81
2019-04-25T22:15:35.024Z,49.28
2019-04-25T22:18:04.433Z,49.00
2019-04-25T22:20:32.602Z,46.20
2019-04-25T22:23:00.727Z,50.44
2019-04-25T22:25:29.132Z,48.93
2019-04-25T22:27:58.716Z,49.25
2019-04-25T22:30:27.384Z,44.85
2019-04-25T22:33:03.520Z,49.49
2019-04-25T22:35:50.816Z,47.49
2019-04-25T22:38:19.189Z,43.97
2019-04-25T22:40:47.363Z,49.59
2019-04-25T22:43:16.625Z,49.76
2019-04-25T22:45:45.107Z,51.30
2019-04-25T22:48:13.400Z,50.77
2019-04-25T22:50:41.892Z,51.47
2019-04-25T22:53:21.519Z,50.04
2019-04-25T22:55:40.041Z,45.92
2019-04-25T22:58:08.245Z,45.64
2019-04-25T23:00:37.702Z,50.76
2019-04-25T23:03:11.452Z,51.00
2019-04-25T23:05:49.447Z,44.69
2019-04-25T23:08:20.731Z,44.64
2019-04-25T23:10:48.997Z,51.18
2019-04-25T23:13:17.310Z,46.59
2019-04-25T23:15:45.570Z,45.06
2019-04-25T23:18:14.091Z,45.63
2019-04-25T23:20:42.406Z,44.60
2019-04-25T23:23:11.722Z,44.14
2019-04-25T23:26:00.442Z,48.02
2019-04-25T23:28:32.517Z,42.77
2019-04-25T23:31:06.514Z,50.84
2019-04-25T23:33:34.785Z,51.37
2019-04-25T23:36:03.090Z,44.61
2019-04-25T23:38:31.395Z,50.38
2019-04-25T23:40:59.729Z,43.99
2019-04-25T23:43:28.024Z,43.87
2019-04-25T23:45:56.229Z,42.66
2019-04-25T23:48:24.520Z,42.72
2019-04-25T23:50:53.717Z,42.40
2019-04-25T23:53:21.921Z,47.46
2019-04-25T23:55:50.447Z,42.04
2019-04-25T23:58:18.641Z,42.01
